Taos, NM

11:16 AM MDT on August 20, 2014 (GMT -0600)
Angel Fire | Change Station
CLOSE
Current Station
Airport
Location: Angel Fire,
Elevation: 8379 ft
Nearby Weather Stations

Elev 8379 ft 36.42 °N, 105.29 °W | Updated 21 minutes ago

Scattered Clouds
Scattered Clouds
62 °F
Feels Like 62 °F
N
9
Wind Variable Wind from West

Today
High -- | Low -- °F
--% Chance of Precip.
Yesterday
High -- | Low -- °F
Precip. -- in
6:24 AM 7:46 PM
Waning Crescent, 20% visible
Pressure 30.26 in
Visibility 10.0 miles
Clouds Scattered Clouds 3800 ft
Scattered Clouds 4300 ft
Dew Point 48 °F
Humidity 60%
Rainfall 0.00 in
Snow Depth 0 in
UV 7 out of 12
Pollen 10.30 out of 12
Air Quality Not available.
Flu Activity Not available.
METAR KAXX 201655Z AUTO 27008KT 10SM SCT038 SCT043 17/09 A3026 RMK AO2 T01680090

More Conditions Fewer Conditions

Pressure 30.26 in
Visibility 10.0 miles
Clouds Scattered Clouds 3800 ft
Scattered Clouds 4300 ft
Dew Point 48 °F
Humidity 60%
Rainfall 0.00 in
Snow Depth 0 in
UV 7 out of 12
Pollen 10.30 out of 12
Air Quality Not available.
Flu Activity Not available.
METAR KAXX 201655Z AUTO 27008KT 10SM SCT038 SCT043 17/09 A3026 RMK AO2 T01680090

More Conditions Fewer Conditions

10-Day Weather Forecast

Almanac

Astronomy

Aug. 20, 2014 Rise Set
Actual Time 6:24 AM MDT 7:46 PM MDT
Civil Twilight 5:57 AM MDT 8:13 PM MDT
Nautical Twilight 5:24 AM MDT 8:45 PM MDT
Astronomical Twilight 4:50 AM MDT 9:19 PM MDT
Moon 2:09 AM MDT 4:30 PM MDT
Length of Visible Light 14h 16m
Length of Day
13h 22m
Tomorrow will be 2m 7s shorter.
Waning Crescent, 20% of the Moon is Illuminated
Today
Waning Crescent
Aug 25
New
Sep 2
First Quarter
Sep 8
Full
Sep 15
Last Quarter

Today's Extremes

State Highs State Lows

Community

WunderPhotos

Upload Photos

1,745,694 photos uploaded!

WunderBlogs® & News

By Dr. Jeff Masters
Director of Meteorology, Weather Underground
By Kari Strenfel
Meteorologist, Weather Underground
By Christopher C. Burt
Weather Historian, Weather Underground
August 20, 2014
August 20, 2014
August 20, 2014

Nearby

Snow Depth

Station Depth Elevation
Gallegos Peak 0 in 9800 ft
Tolby 0 in 10180 ft
Bateman 0 in 9300 ft
Wesner Springs 1 in 11120 ft
Hopewell 0 in 10000 ft

Earthquake Activity

City Distance Mag. Time & Date
No recent earthquake activity has been reported nearby.
Minimum magnitude displayed is 2.5.

Coastal Water Temperatures

Place Temperature
No Stations Reporting

Nearby Weather Stations